Main page
METAR-TAF:

METAR-TAF

Airports :

Aurillac, France

Aurillac – Tronquières Airport

latitude: 44-53N, longitude: 002-25E, elevation: 639 m

Current weather observation

The report was made 26 minutes ago, at 07:00 UTC
Wind 9 kt from the East
Temperature 7°C
Humidity 57%
Pressure 1015 hPa
Visibility 10 km or more
no clouds below 1500 m and no cumulonimbus

METAR: LFLW 220700Z AUTO 09009KT CAVOK 07/M01 Q1015 NOSIG

Time: 08:26 (07:26 UTC)

Forecast

The report was made 2 hours and 26 minutes ago, at 05:00 UTC
Forecast valid from 22 at 06 UTC to 22 at 15 UTC
Wind 10 kt from the East/Southeast
Visibility 10 km or more
no clouds below 1500 m and no cumulonimbus

TAF: LFLW 220500Z 2206/2215 11010KT CAVOK

Weather observations and forecasts of more than 4000 airports (METAR and TAF reports).

The available stations are represented by yellow and red dots on the map.

Hover mouse over dot to see the name of the station.

Then click to see weather observations and forecasts.

To change the map : click on the green buttons with a black cross to zoom in, on the green button with a dash to zoom out, or on the green arrows for adjacent maps.


METAR-TAF: